Time;durP1;ratioP1;P1;durP2;ratioP2;P2;SDS_P1;SDS_P2;PMS_P1;PMS_P2;Temp;Humidity;BMP_temperature;BMP_pressure;BME280_temperature;BME280_humidity;BME280_pressure;Samples;Min_cycle;Max_cycle;Signal;HPM_P1;HPM_P2
2022/04/10 00:02:25;;;;;;;5.43;2.95;;;4.30;99.90;;;;;;5099758;28;20035;-53
2022/04/10 00:05:09;;;;;;;5.78;3.05;;;4.30;99.90;;;;;;5108089;28;20190;-51
2022/04/10 00:07:54;;;;;;;4.00;2.63;;;4.30;99.90;;;;;;5132297;27;20072;-48
2022/04/10 00:10:38;;;;;;;4.87;2.97;;;4.20;99.90;;;;;;5136749;27;20050;-49
2022/04/10 00:13:22;;;;;;;6.22;3.03;;;4.20;99.90;;;;;;5136277;27;20162;-48
2022/04/10 00:16:08;;;;;;;6.75;2.97;;;4.00;99.90;;;;;;5116944;27;20419;-51
2022/04/10 00:18:52;;;;;;;3.97;2.90;;;4.10;99.90;;;;;;5115402;28;20034;-47
2022/04/10 00:21:37;;;;;;;4.60;2.85;;;4.10;99.90;;;;;;5104648;28;20070;-48
2022/04/10 00:24:25;;;;;;;7.15;3.25;;;4.20;99.90;;;;;;5113986;28;20078;-50
2022/04/10 00:27:13;;;;;;;4.22;3.25;;;4.10;99.90;;;;;;5115799;28;20042;-49
2022/04/10 00:29:57;;;;;;;7.32;3.08;;;4.00;99.90;;;;;;5114252;28;20043;-47
2022/04/10 00:32:42;;;;;;;7.40;3.60;;;4.10;99.90;;;;;;5115244;28;20575;-49
2022/04/10 00:35:27;;;;;;;7.35;4.35;;;4.00;99.90;;;;;;5100748;28;20518;-50
2022/04/10 00:38:11;;;;;;;4.82;2.90;;;4.00;99.90;;;;;;5100290;28;20094;-52
2022/04/10 00:40:55;;;;;;;6.22;2.90;;;4.00;99.90;;;;;;5095838;28;20090;-52
2022/04/10 00:44:03;;;;;;;9.15;3.42;;;4.10;99.90;;;;;;5098474;28;20071;-47
2022/04/10 00:46:49;;;;;;;8.23;3.40;;;4.10;99.90;;;;;;5111332;27;20446;-47
2022/04/10 00:49:33;;;;;;;7.32;3.47;;;4.00;99.90;;;;;;5132383;27;20050;-47
2022/04/10 00:52:19;;;;;;;9.57;3.35;;;4.00;99.90;;;;;;5108601;28;20039;-49
2022/04/10 00:55:04;;;;;;;9.30;3.45;;;4.10;99.90;;;;;;5093374;28;20035;-46
2022/04/10 00:57:48;;;;;;;6.70;3.05;;;4.00;99.90;;;;;;5102948;28;20050;-50
2022/04/10 01:00:32;;;;;;;5.50;3.00;;;3.90;99.90;;;;;;5114230;28;20046;-50
2022/04/10 01:03:16;;;;;;;5.53;3.00;;;4.00;99.90;;;;;;5100946;28;20458;-48
2022/04/10 01:06:00;;;;;;;9.40;3.42;;;4.00;99.90;;;;;;5097573;28;20086;-47
2022/04/10 01:08:44;;;;;;;8.73;3.50;;;4.00;99.90;;;;;;5093706;28;20035;-50
2022/04/10 01:11:29;;;;;;;9.55;3.83;;;4.00;99.90;;;;;;5094220;28;20047;-49
2022/04/10 01:14:14;;;;;;;12.23;3.47;;;4.00;99.90;;;;;;5113636;28;20038;-47
2022/04/10 01:16:59;;;;;;;11.30;3.60;;;4.00;99.90;;;;;;5113398;28;20066;-51
2022/04/10 01:19:43;;;;;;;;;;;3.90;99.90;;;;;;5095556;28;20097;-47
2022/04/10 01:22:35;;;;;;;7.22;3.20;;;3.80;99.90;;;;;;5094228;28;20272;-48
2022/04/10 01:25:19;;;;;;;6.32;3.15;;;3.80;99.90;;;;;;5094831;28;20552;-49
2022/04/10 01:28:11;;;;;;;8.38;3.65;;;3.90;99.90;;;;;;5114096;28;20513;-50
2022/04/10 01:30:55;;;;;;;5.90;3.30;;;3.90;99.90;;;;;;5113350;28;20043;-48
2022/04/10 01:33:39;;;;;;;5.88;3.13;;;3.70;99.90;;;;;;5113135;28;20038;-46
2022/04/10 01:36:25;;;;;;;8.52;3.65;;;3.70;99.90;;;;;;5112958;28;20035;-51
2022/04/10 01:39:11;;;;;;;15.43;5.00;;;3.80;99.90;;;;;;5114698;28;20070;-51
2022/04/10 01:41:57;;;;;;;8.23;3.60;;;3.80;99.90;;;;;;5109907;27;20043;-48
2022/04/10 01:44:42;;;;;;;7.68;3.90;;;3.70;99.90;;;;;;5135106;27;20096;-47
2022/04/10 01:47:26;;;;;;;7.95;3.38;;;3.70;99.90;;;;;;5093493;28;20040;-49
2022/04/10 01:50:11;;;;;;;9.18;3.20;;;3.80;99.90;;;;;;5095457;28;20053;-51
2022/04/10 01:52:55;;;;;;;6.35;3.05;;;3.80;99.90;;;;;;5128376;27;20386;-52
2022/04/10 01:55:39;;;;;;;7.32;3.40;;;3.90;99.90;;;;;;5125558;27;20034;-50
2022/04/10 01:58:24;;;;;;;9.77;4.18;;;3.80;99.90;;;;;;5113139;28;20039;-46
2022/04/10 02:01:10;;;;;;;7.93;3.92;;;3.70;99.90;;;;;;5112903;28;20110;-47
2022/04/10 02:03:54;;;;;;;9.73;3.85;;;3.60;99.90;;;;;;5113488;28;20035;-47
2022/04/10 02:06:38;;;;;;;6.28;3.40;;;3.60;99.90;;;;;;5099088;28;20035;-52
2022/04/10 02:09:22;;;;;;;9.10;3.70;;;3.60;99.90;;;;;;5092828;28;20039;-48
2022/04/10 02:12:08;;;;;;;9.03;4.07;;;3.60;99.90;;;;;;5109914;28;20395;-47
2022/04/10 02:14:52;;;;;;;7.07;3.65;;;3.50;99.90;;;;;;5107811;28;20097;-58
2022/04/10 02:17:36;;;;;;;6.97;3.88;;;3.50;99.90;;;;;;5077433;28;20085;-50
2022/04/10 02:20:20;;;;;;;10.10;4.30;;;3.70;99.90;;;;;;5100647;28;20115;-51
2022/04/10 02:23:05;;;;;;;10.65;3.95;;;3.70;99.90;;;;;;5113075;28;20513;-49
2022/04/10 02:25:49;;;;;;;9.52;3.90;;;3.70;99.90;;;;;;5101116;28;20100;-49
2022/04/10 02:28:33;;;;;;;9.18;4.75;;;3.70;99.90;;;;;;5119339;27;20034;-50
2022/04/10 02:31:17;;;;;;;10.90;3.83;;;3.70;99.90;;;;;;5107677;28;20142;-52
2022/04/10 02:34:01;;;;;;;10.47;4.40;;;3.60;99.90;;;;;;5111989;28;20096;-48
2022/04/10 02:36:45;;;;;;;11.57;4.10;;;3.70;99.90;;;;;;5113032;28;20127;-48
2022/04/10 02:39:29;;;;;;;8.55;4.45;;;3.70;99.90;;;;;;5098473;28;20078;-48
2022/04/10 02:42:13;;;;;;;7.25;4.50;;;3.60;99.90;;;;;;5112681;27;20096;-48
2022/04/10 02:44:57;;;;;;;6.10;3.90;;;3.60;99.90;;;;;;5096681;28;20036;-49
2022/04/10 02:47:42;;;;;;;14.15;4.65;;;3.50;99.90;;;;;;5091995;28;20051;-47
2022/04/10 02:50:26;;;;;;;7.18;4.20;;;3.40;99.90;;;;;;5092354;28;20043;-50
2022/04/10 02:53:10;;;;;;;8.60;4.75;;;3.50;99.90;;;;;;5078239;28;20119;-46
2022/04/10 02:55:54;;;;;;;11.30;4.57;;;3.60;99.90;;;;;;5113200;28;20057;-47
2022/04/10 02:58:38;;;;;;;9.30;5.10;;;3.60;99.90;;;;;;5096792;28;20086;-48
2022/04/10 03:01:22;;;;;;;11.52;4.40;;;3.60;99.90;;;;;;5092717;28;20071;-49
2022/04/10 03:04:07;;;;;;;11.07;4.40;;;3.60;99.90;;;;;;5110170;28;20456;-51
2022/04/10 03:06:51;;;;;;;8.88;4.43;;;3.50;99.90;;;;;;5112558;28;20383;-48
2022/04/10 03:09:35;;;;;;;10.65;4.40;;;3.50;99.90;;;;;;5092573;28;20117;-47
2022/04/10 03:12:19;;;;;;;11.90;5.00;;;3.50;99.90;;;;;;5094870;28;20065;-52
2022/04/10 03:15:05;;;;;;;9.68;4.40;;;3.50;99.90;;;;;;5112931;28;20077;-48
2022/04/10 03:17:49;;;;;;;11.18;5.03;;;3.60;99.90;;;;;;5106521;28;20035;-50
2022/04/10 03:20:33;;;;;;;11.15;4.70;;;3.50;99.90;;;;;;5092173;28;20038;-47
2022/04/10 03:23:17;;;;;;;8.13;4.63;;;3.50;99.90;;;;;;5100810;28;20054;-46
2022/04/10 03:26:02;;;;;;;9.68;5.82;;;3.60;99.90;;;;;;5111538;28;20107;-48
2022/04/10 03:28:46;;;;;;;7.55;4.78;;;3.60;99.90;;;;;;5109184;28;20082;-50
2022/04/10 03:31:30;;;;;;;11.20;4.40;;;3.60;99.90;;;;;;5122917;28;20045;-49
2022/04/10 03:34:14;;;;;;;10.27;4.70;;;3.60;99.90;;;;;;5111983;28;20117;-46
2022/04/10 03:36:58;;;;;;;6.57;4.97;;;3.70;99.90;;;;;;5105030;28;20039;-45
2022/04/10 03:39:42;;;;;;;12.07;5.32;;;3.80;99.90;;;;;;5091848;28;20039;-48
2022/04/10 03:42:26;;;;;;;10.80;4.55;;;3.80;99.90;;;;;;5103575;28;20046;-47
2022/04/10 03:45:10;;;;;;;10.20;4.57;;;3.80;99.90;;;;;;5111203;28;20043;-51
2022/04/10 03:47:54;;;;;;;13.50;4.75;;;3.80;99.90;;;;;;5097903;28;20039;-50
2022/04/10 03:50:38;;;;;;;12.95;5.45;;;3.80;99.90;;;;;;5091622;28;20450;-49
2022/04/10 03:53:22;;;;;;;11.63;4.47;;;3.70;99.90;;;;;;5108611;28;20051;-52
2022/04/10 03:56:06;;;;;;;9.45;4.40;;;3.70;99.90;;;;;;5104115;28;20043;-50
2022/04/10 03:58:50;;;;;;;10.55;5.00;;;3.80;99.90;;;;;;5094842;28;20083;-49
2022/04/10 04:01:34;;;;;;;9.95;4.45;;;3.70;99.90;;;;;;5105699;28;20077;-46
2022/04/10 04:04:20;;;;;;;10.07;4.93;;;3.70;99.90;;;;;;5115351;28;20082;-46
2022/04/10 04:07:04;;;;;;;13.23;4.30;;;3.80;99.90;;;;;;5101423;28;20032;-46
2022/04/10 04:09:48;;;;;;;7.85;4.20;;;3.70;99.90;;;;;;5095389;28;20408;-50
2022/04/10 04:12:34;;;;;;;9.60;4.65;;;3.60;99.90;;;;;;5111403;28;20042;-47
2022/04/10 04:15:18;;;;;;;12.25;4.55;;;3.70;99.90;;;;;;5115008;28;20039;-46
2022/04/10 04:18:02;;;;;;;9.40;4.60;;;3.60;99.90;;;;;;5094838;28;20047;-46
2022/04/10 04:20:46;;;;;;;11.32;4.90;;;3.60;99.90;;;;;;5106985;28;20050;-50
2022/04/10 04:23:30;;;;;;;9.95;4.35;;;3.70;99.90;;;;;;5114860;28;20553;-48
2022/04/10 04:26:15;;;;;;;10.48;4.40;;;3.60;99.90;;;;;;5098286;28;20050;-50
2022/04/10 04:28:58;;;;;;;16.60;6.32;;;3.60;99.90;;;;;;5094629;28;20047;-47
2022/04/10 04:31:42;;;;;;;9.95;4.55;;;3.50;99.90;;;;;;5119343;27;20086;-52
2022/04/10 04:34:26;;;;;;;18.85;5.15;;;3.50;99.90;;;;;;5117429;27;20033;-46
2022/04/10 04:37:11;;;;;;;8.75;4.20;;;3.50;99.90;;;;;;5112035;28;20046;-47
2022/04/10 04:39:55;;;;;;;10.35;4.68;;;3.40;99.90;;;;;;5101123;28;20117;-47
2022/04/10 04:42:39;;;;;;;7.07;4.68;;;3.30;99.90;;;;;;5094128;28;20101;-49
2022/04/10 04:45:23;;;;;;;16.77;5.05;;;3.50;99.90;;;;;;5110464;28;20062;-47
2022/04/10 04:48:07;;;;;;;6.90;4.40;;;3.60;99.90;;;;;;5115039;28;20398;-52
2022/04/10 04:50:51;;;;;;;9.90;4.28;;;3.70;99.90;;;;;;5094474;28;20038;-50
2022/04/10 04:53:36;;;;;;;10.35;5.47;;;3.70;99.90;;;;;;5094221;28;20089;-50
2022/04/10 04:56:20;;;;;;;9.23;5.30;;;3.70;99.90;;;;;;5114157;28;20047;-49
2022/04/10 04:59:05;;;;;;;8.63;4.88;;;3.70;99.90;;;;;;5112532;28;20412;-47
2022/04/10 05:01:49;;;;;;;9.65;4.30;;;3.70;99.90;;;;;;5115019;27;20103;-50
2022/04/10 05:04:33;;;;;;;9.70;4.75;;;3.70;99.90;;;;;;5125889;27;20097;-51
2022/04/10 05:07:17;;;;;;;12.75;4.78;;;3.70;99.90;;;;;;5093651;28;20099;-53
2022/04/10 05:10:01;;;;;;;12.23;5.13;;;3.70;99.90;;;;;;5102982;28;20134;-51
2022/04/10 05:12:45;;;;;;;13.53;5.80;;;3.70;99.90;;;;;;5113459;28;20077;-51
2022/04/10 05:15:29;;;;;;;12.23;5.32;;;3.80;99.90;;;;;;5101015;28;20046;-51
2022/04/10 05:18:14;;;;;;;8.73;5.05;;;3.80;99.90;;;;;;5093462;28;20081;-53
2022/04/10 05:20:58;;;;;;;9.65;5.15;;;3.70;99.90;;;;;;5110338;28;20039;-51
2022/04/10 05:23:42;;;;;;;12.65;5.65;;;3.80;99.90;;;;;;5114139;28;20082;-46
2022/04/10 05:26:26;;;;;;;10.13;5.30;;;3.80;99.90;;;;;;5094025;28;20034;-52
2022/04/10 05:29:10;;;;;;;15.03;5.63;;;3.90;99.90;;;;;;5094120;28;20587;-48
2022/04/10 05:31:54;;;;;;;10.85;5.63;;;3.80;99.90;;;;;;5119727;27;20033;-49
2022/04/10 05:34:38;;;;;;;11.90;5.63;;;3.80;99.90;;;;;;5112451;28;20137;-52
2022/04/10 05:37:22;;;;;;;10.15;5.30;;;3.80;99.90;;;;;;5112617;28;20100;-48
2022/04/10 05:40:07;;;;;;;15.47;5.77;;;3.90;99.90;;;;;;5093810;28;20032;-49
2022/04/10 05:42:51;;;;;;;13.48;6.10;;;3.90;99.90;;;;;;5100653;28;20027;-52
2022/04/10 05:45:35;;;;;;;11.48;5.60;;;3.80;99.90;;;;;;5113360;28;20034;-48
2022/04/10 05:48:20;;;;;;;9.68;5.50;;;3.70;99.90;;;;;;5103510;28;20082;-48
2022/04/10 05:51:07;;;;;;;9.75;6.15;;;3.90;99.90;;;;;;5092840;28;20063;-53
2022/04/10 05:53:51;;;;;;;11.15;5.05;;;4.00;99.90;;;;;;5106770;28;20073;-53
2022/04/10 05:56:35;;;;;;;11.23;5.75;;;3.90;99.90;;;;;;5112860;28;20038;-51
2022/04/10 05:59:19;;;;;;;10.65;5.80;;;4.00;99.90;;;;;;5095232;28;20502;-52
2022/04/10 06:02:03;;;;;;;11.48;6.20;;;4.00;99.90;;;;;;5100241;28;20043;-49
2022/04/10 06:04:48;;;;;;;8.88;5.90;;;4.00;99.90;;;;;;5112881;28;20035;-50
2022/04/10 06:07:32;;;;;;;10.75;5.63;;;4.10;99.90;;;;;;5101432;28;20034;-52
2022/04/10 06:10:16;;;;;;;15.27;5.78;;;4.20;99.90;;;;;;5104037;28;20475;-52
2022/04/10 06:13:08;;;;;;;12.50;6.13;;;4.30;99.90;;;;;;5111958;28;20038;-49
2022/04/10 06:15:52;;;;;;;7.88;5.65;;;4.40;99.90;;;;;;5097485;28;20042;-48
2022/04/10 06:18:36;;;;;;;11.68;5.82;;;4.40;99.90;;;;;;5092705;28;20533;-48
2022/04/10 06:21:20;;;;;;;9.40;5.97;;;4.50;99.90;;;;;;5111389;28;20027;-48
2022/04/10 06:24:04;;;;;;;12.55;5.07;;;4.50;99.90;;;;;;5113816;28;20049;-48
2022/04/10 06:26:49;;;;;;;8.18;5.00;;;4.60;99.90;;;;;;5092697;28;20453;-48
2022/04/10 06:29:33;;;;;;;7.60;4.90;;;4.60;99.90;;;;;;5078536;28;20525;-47
2022/04/10 06:32:17;;;;;;;20.60;6.50;;;4.70;99.90;;;;;;5102039;28;20043;-48
2022/04/10 06:35:01;;;;;;;10.80;5.18;;;4.70;99.90;;;;;;5110560;28;20085;-51
2022/04/10 06:37:45;;;;;;;12.52;6.00;;;4.80;99.90;;;;;;5111262;28;20399;-49
2022/04/10 06:40:29;;;;;;;16.93;5.63;;;4.90;99.90;;;;;;5099249;28;20054;-50
2022/04/10 06:43:13;;;;;;;8.65;5.00;;;5.00;99.90;;;;;;5128712;27;20034;-50
2022/04/10 06:45:57;;;;;;;10.43;4.85;;;4.90;99.90;;;;;;5131692;27;20030;-50
2022/04/10 06:48:41;;;;;;;11.32;5.10;;;4.90;99.90;;;;;;5091140;28;20043;-48
2022/04/10 06:51:25;;;;;;;11.80;4.75;;;5.10;99.90;;;;;;5092979;28;20089;-50
2022/04/10 06:54:09;;;;;;;9.30;4.65;;;5.20;99.90;;;;;;5111062;28;20038;-48
2022/04/10 06:56:53;;;;;;;12.60;5.85;;;5.20;99.90;;;;;;5094972;28;20042;-50
2022/04/10 06:59:37;;;;;;;13.00;6.10;;;5.10;99.90;;;;;;5080662;28;20070;-50
2022/04/10 07:02:21;;;;;;;8.07;4.70;;;5.10;99.90;;;;;;5123371;28;20476;-47
2022/04/10 07:05:06;;;;;;;9.33;4.87;;;5.20;99.90;;;;;;5119215;27;20552;-49
2022/04/10 07:07:50;;;;;;;8.77;5.22;;;5.10;99.90;;;;;;5111028;28;20070;-47
2022/04/10 07:10:36;;;;;;;12.80;4.60;;;5.00;99.90;;;;;;5098066;28;20051;-47
2022/04/10 07:13:22;;;;;;;14.43;5.47;;;5.10;99.90;;;;;;5106948;28;20129;-52
2022/04/10 07:16:06;;;;;;;8.68;5.30;;;5.20;99.90;;;;;;5093992;28;20074;-48
2022/04/10 07:18:50;;;;;;;13.75;5.55;;;5.40;99.90;;;;;;5091302;28;20071;-50
2022/04/10 07:24:38;;;;;;;9.05;4.53;;;5.30;99.90;;;;;;5111745;28;20042;-50
2022/04/10 07:27:22;;;;;;;9.43;4.60;;;5.40;99.90;;;;;;5095714;28;20407;-49
2022/04/10 07:30:06;;;;;;;14.48;5.28;;;5.70;99.80;;;;;;5117950;28;20046;-54
2022/04/10 07:32:55;;;;;;;12.32;5.72;;;5.80;99.70;;;;;;5123610;27;20078;-53
2022/04/10 07:35:44;;;;;;;11.02;4.85;;;5.90;99.30;;;;;;5114844;28;20457;-51
2022/04/10 07:38:29;;;;;;;10.23;5.13;;;5.90;99.20;;;;;;5113893;28;20049;-49
2022/04/10 07:41:13;;;;;;;13.02;4.40;;;6.00;99.10;;;;;;5114934;28;20034;-49
2022/04/10 07:43:57;;;;;;;13.02;5.30;;;6.00;98.80;;;;;;5114670;28;20116;-50
2022/04/10 07:49:44;;;;;;;11.43;4.95;;;6.10;98.40;;;;;;5135497;27;20046;-50
2022/04/10 07:52:28;;;;;;;14.35;5.75;;;6.10;98.60;;;;;;5134917;27;20569;-51
2022/04/10 07:55:12;;;;;;;9.73;4.90;;;6.20;98.80;;;;;;5134941;27;20559;-49
2022/04/10 07:57:57;;;;;;;13.13;5.28;;;6.30;98.40;;;;;;5134958;27;20030;-50
2022/04/10 08:00:41;;;;;;;9.25;4.45;;;6.40;98.40;;;;;;5135632;27;20046;-47
2022/04/10 08:03:26;;;;;;;11.80;5.53;;;6.60;97.90;;;;;;5081109;28;20151;-49
2022/04/10 08:06:10;;;;;;;12.23;5.18;;;6.60;97.90;;;;;;5099109;28;20042;-53
2022/04/10 08:08:54;;;;;;;11.90;5.82;;;6.60;97.70;;;;;;5110251;28;20042;-51
2022/04/10 08:11:39;;;;;;;13.15;5.68;;;6.50;97.80;;;;;;5114881;28;20086;-49
2022/04/10 08:14:23;;;;;;;11.43;5.55;;;6.60;97.80;;;;;;5100554;28;20077;-49
2022/04/10 08:17:11;;;;;;;13.88;4.68;;;6.50;97.20;;;;;;5095520;28;20093;-50
2022/04/10 08:19:56;;;;;;;13.15;5.25;;;6.50;97.10;;;;;;5114151;28;20395;-51
2022/04/10 08:22:40;;;;;;;11.77;4.93;;;6.30;97.10;;;;;;5094321;28;20031;-49
2022/04/10 08:25:25;;;;;;;12.75;4.93;;;6.20;97.20;;;;;;5097371;28;20107;-48
2022/04/10 08:28:09;;;;;;;9.45;4.70;;;6.20;96.70;;;;;;5114780;28;20448;-48
2022/04/10 08:30:53;;;;;;;14.68;5.32;;;6.20;96.30;;;;;;5091398;28;20086;-52
2022/04/10 08:33:37;;;;;;;15.80;4.47;;;6.20;95.90;;;;;;5103563;28;20050;-50
2022/04/10 08:36:21;;;;;;;10.03;4.77;;;6.40;95.90;;;;;;5112567;28;20031;-51
2022/04/10 08:39:06;;;;;;;12.47;4.73;;;6.50;96.10;;;;;;5107383;28;20046;-53
2022/04/10 08:41:51;;;;;;;11.05;4.38;;;6.50;96.30;;;;;;5105038;27;20562;-51
2022/04/10 08:44:36;;;;;;;11.93;4.93;;;6.50;95.90;;;;;;5133185;27;20038;-52
2022/04/10 08:47:21;;;;;;;;;;;6.60;95.80;;;;;;5134530;27;20106;-49
2022/04/10 08:50:07;;;;;;;14.40;5.03;;;6.60;95.70;;;;;;5113842;27;19970;-48
2022/04/10 08:52:54;;;;;;;11.10;3.45;;;6.80;95.50;;;;;;5102398;28;20666;-49
2022/04/10 08:55:38;;;;;;;7.97;3.63;;;6.80;93.40;;;;;;5110369;28;20121;-48
2022/04/10 08:58:23;;;;;;;11.07;4.30;;;6.90;93.00;;;;;;5097310;28;20089;-50
2022/04/10 09:01:16;;;;;;;10.10;4.93;;;7.00;93.80;;;;;;5105121;28;20093;-55
2022/04/10 09:04:00;;;;;;;14.00;4.07;;;6.90;94.50;;;;;;5092392;28;20035;-52
2022/04/10 09:06:58;;;;;;;10.82;4.57;;;6.80;94.00;;;;;;5115896;27;20458;-52
2022/04/10 09:09:53;;;;;;;10.20;3.92;;;6.60;94.20;;;;;;5112711;28;20438;-53
2022/04/10 09:12:45;;;;;;;8.05;4.45;;;6.80;94.40;;;;;;5112746;28;20169;-48
2022/04/10 09:15:32;;;;;;;13.55;4.85;;;7.10;94.30;;;;;;5112561;28;20445;-52
2022/04/10 09:18:16;;;;;;;10.02;3.65;;;7.30;93.80;;;;;;5112540;28;20081;-50
2022/04/10 09:21:07;;;;;;;9.60;3.53;;;7.10;91.80;;;;;;5106754;28;20502;-49
2022/04/10 09:24:13;;;;;;;12.10;3.40;;;7.10;92.20;;;;;;5098241;28;20057;-49
2022/04/10 09:26:58;;;;;;;9.73;3.45;;;7.20;91.10;;;;;;5095654;28;20553;-49
2022/04/10 09:29:50;;;;;;;10.27;2.95;;;7.00;90.60;;;;;;5110901;28;20070;-46
2022/04/10 09:32:47;;;;;;;8.15;3.60;;;7.20;90.40;;;;;;5109333;28;20145;-50
2022/04/10 09:35:43;;;;;;;10.70;3.78;;;7.10;90.20;;;;;;5096217;28;20088;-51
2022/04/10 09:38:30;;;;;;;8.68;3.25;;;7.10;90.60;;;;;;5111210;28;20027;-48
2022/04/10 09:41:20;;;;;;;10.10;4.30;;;7.10;91.40;;;;;;5106972;27;20047;-51
2022/04/10 09:44:12;;;;;;;9.18;3.70;;;7.40;91.40;;;;;;5132501;27;20062;-50
2022/04/10 09:47:08;;;;;;;12.18;3.95;;;7.20;92.00;;;;;;5113538;27;20070;-51
2022/04/10 09:49:53;;;;;;;11.68;3.80;;;7.30;92.00;;;;;;5094390;28;20026;-51
2022/04/10 09:52:37;;;;;;;8.32;3.95;;;7.20;91.60;;;;;;5094734;28;20039;-49
2022/04/10 09:55:39;;;;;;;10.18;4.20;;;7.30;91.60;;;;;;5111794;28;20403;-49
2022/04/10 09:58:25;;;;;;;10.25;4.03;;;7.30;90.50;;;;;;5111587;27;20061;-49
2022/04/10 10:01:11;;;;;;;9.63;3.40;;;7.30;90.40;;;;;;5132370;27;20058;-49
2022/04/10 10:03:57;;;;;;;5.50;2.90;;;7.20;90.70;;;;;;5111700;27;20415;-51
2022/04/10 10:06:41;;;;;;;6.80;3.08;;;7.30;90.90;;;;;;5111713;27;20104;-52
2022/04/10 10:09:26;;;;;;;8.90;3.13;;;7.30;89.20;;;;;;5107583;28;20030;-55
2022/04/10 10:12:10;;;;;;;7.53;2.38;;;7.40;89.40;;;;;;5105402;28;20104;-53
2022/04/10 10:14:56;;;;;;;6.97;3.05;;;7.40;88.40;;;;;;5111335;28;20110;-51
2022/04/10 10:17:41;;;;;;;9.38;3.08;;;7.50;88.90;;;;;;5093180;28;20070;-48
2022/04/10 10:20:26;;;;;;;5.63;3.05;;;7.50;90.00;;;;;;5095515;28;20050;-51
2022/04/10 10:23:14;;;;;;;8.30;3.78;;;7.60;89.30;;;;;;5112199;27;20501;-49
2022/04/10 10:26:17;;;;;;;10.77;3.33;;;7.60;88.50;;;;;;5108999;28;20066;-48
2022/04/10 10:29:39;;;;;;;7.55;2.70;;;7.90;86.50;;;;;;5107936;27;20058;-50
2022/04/10 10:32:40;;;;;;;7.40;2.80;;;7.90;86.10;;;;;;5106697;28;20038;-51
2022/04/10 10:35:34;;;;;;;5.57;2.42;;;8.00;86.10;;;;;;5090972;28;20115;-52
2022/04/10 10:38:30;;;;;;;5.40;2.63;;;7.70;85.00;;;;;;5103836;28;20109;-52
2022/04/10 10:41:18;;;;;;;5.43;2.40;;;7.70;84.90;;;;;;5087372;27;20038;-48
2022/04/10 10:44:38;;;;;;;7.65;2.90;;;7.70;85.10;;;;;;5131492;27;20030;-52
2022/04/10 10:47:25;;;;;;;7.38;2.67;;;7.80;86.00;;;;;;5047811;28;20036;-50
2022/04/10 10:50:28;;;;;;;6.43;2.50;;;8.00;85.10;;;;;;5106229;28;20038;-49
2022/04/10 10:53:12;;;;;;;6.40;2.85;;;8.10;84.90;;;;;;5079732;28;20037;-51
2022/04/10 10:55:59;;;;;;;4.85;2.38;;;8.30;85.40;;;;;;5094705;28;20424;-55
2022/04/10 10:58:44;;;;;;;6.72;3.03;;;8.10;85.60;;;;;;5108339;28;20093;-49
2022/04/10 11:01:30;;;;;;;7.93;3.15;;;8.00;85.80;;;;;;5083669;28;20066;-50
2022/04/10 11:04:19;;;;;;;5.97;2.60;;;8.00;86.90;;;;;;5076491;28;20568;-49
2022/04/10 11:07:19;;;;;;;8.18;2.55;;;8.20;84.60;;;;;;5095684;27;20034;-48
2022/04/10 11:10:11;;;;;;;6.90;2.38;;;8.10;84.70;;;;;;5095264;28;20437;-49
2022/04/10 11:13:02;;;;;;;6.60;2.50;;;8.20;84.00;;;;;;5099653;27;20092;-47
2022/04/10 11:15:48;;;;;;;4.32;2.38;;;8.10;83.90;;;;;;5086480;28;20031;-49
2022/04/10 11:18:36;;;;;;;6.60;2.70;;;8.10;83.90;;;;;;5110899;28;20042;-49
2022/04/10 11:21:21;;;;;;;6.97;2.80;;;8.20;84.10;;;;;;5115372;28;20126;-48
2022/04/10 11:24:08;;;;;;;;;;;8.10;86.40;;;;;;5114586;28;20119;-51
2022/04/10 11:26:52;;;;;;;7.35;3.47;;;8.10;88.10;;;;;;5114771;28;19991;-50
2022/04/10 11:29:41;;;;;;;5.80;2.67;;;7.90;89.20;;;;;;5110430;28;20043;-49
2022/04/10 11:32:39;;;;;;;6.75;3.28;;;7.60;90.90;;;;;;5114608;28;20078;-50
2022/04/10 11:35:32;;;;;;;5.95;3.05;;;7.30;91.30;;;;;;5094152;28;20043;-50
2022/04/10 11:38:17;;;;;;;11.15;3.67;;;7.50;91.00;;;;;;5098370;28;20073;-47
2022/04/10 11:41:02;;;;;;;6.65;2.70;;;8.10;91.00;;;;;;5111209;27;20062;-52
2022/04/10 11:43:51;;;;;;;8.18;3.20;;;8.30;89.70;;;;;;5112406;28;20089;-48
2022/04/10 11:46:36;;;;;;;8.43;3.42;;;8.40;89.60;;;;;;5104129;28;20054;-49
2022/04/10 11:49:20;;;;;;;7.13;3.15;;;8.40;87.30;;;;;;5114768;28;20398;-48
2022/04/10 11:52:07;;;;;;;6.82;3.58;;;8.40;88.40;;;;;;5113950;28;20047;-50
2022/04/10 11:54:52;;;;;;;4.35;2.20;;;8.30;88.90;;;;;;5105884;28;20042;-54
2022/04/10 11:57:39;;;;;;;4.68;2.40;;;7.50;91.60;;;;;;5079101;28;20039;-47
2022/04/10 12:00:24;;;;;;;5.07;3.13;;;6.60;95.00;;;;;;5094413;28;20077;-49
2022/04/10 12:03:09;;;;;;;6.82;2.65;;;6.10;98.10;;;;;;5093543;28;20131;-52
2022/04/10 12:05:57;;;;;;;3.67;2.22;;;5.90;99.90;;;;;;5078714;28;20121;-54
2022/04/10 12:08:41;;;;;;;4.25;2.30;;;5.80;98.00;;;;;;5093876;28;20035;-50
2022/04/10 12:11:25;;;;;;;6.97;2.58;;;6.00;97.10;;;;;;5101451;28;20085;-53
2022/04/10 12:14:24;;;;;;;6.68;4.13;;;6.30;97.60;;;;;;5114047;28;20483;-46
2022/04/10 12:17:13;;;;;;;4.90;2.40;;;6.60;97.30;;;;;;5114581;28;20066;-53
2022/04/10 12:19:58;;;;;;;3.67;2.78;;;6.80;97.40;;;;;;5112507;28;20412;-48
2022/04/10 12:22:42;;;;;;;4.88;2.78;;;7.30;95.90;;;;;;5114179;28;20108;-48
2022/04/10 12:25:28;;;;;;;6.35;2.90;;;7.40;96.00;;;;;;5101372;28;20097;-45
2022/04/10 12:28:13;;;;;;;5.00;2.72;;;7.60;95.50;;;;;;5094416;28;20584;-47
2022/04/10 12:31:01;;;;;;;4.05;2.85;;;7.80;95.50;;;;;;5094818;28;20090;-48
2022/04/10 12:33:46;;;;;;;5.82;3.33;;;8.10;95.30;;;;;;5094860;28;20575;-51
2022/04/10 12:36:31;;;;;;;5.40;3.03;;;8.20;95.00;;;;;;5098032;28;20039;-50
2022/04/10 12:39:28;;;;;;;9.43;3.05;;;8.50;94.90;;;;;;5127336;27;20608;-55
2022/04/10 12:42:19;;;;;;;4.22;2.60;;;8.60;93.70;;;;;;5118104;27;20070;-48
2022/04/10 12:45:11;;;;;;;3.95;2.40;;;8.90;91.90;;;;;;5123275;27;20058;-50
2022/04/10 12:47:55;;;;;;;4.88;2.83;;;9.10;90.90;;;;;;5064521;28;20542;-46
2022/04/10 12:50:39;;;;;;;8.18;2.92;;;9.00;90.10;;;;;;5105404;28;20079;-45
2022/04/10 12:53:26;;;;;;;5.55;2.10;;;9.10;85.90;;;;;;5110280;27;20571;-53
2022/04/10 12:56:21;;;;;;;3.25;2.28;;;8.80;84.00;;;;;;5126988;27;20038;-48
2022/04/10 12:59:05;;;;;;;;;;;8.90;84.60;;;;;;5093773;28;20068;-52
2022/04/10 13:01:53;;;;;;;5.00;2.55;;;8.80;84.10;;;;;;5097589;28;20310;-49
2022/04/10 13:04:38;;;;;;;7.13;2.45;;;8.90;82.10;;;;;;5116147;27;20026;-47
2022/04/10 13:07:24;;;;;;;4.45;2.00;;;9.00;81.40;;;;;;5117501;27;20130;-46
2022/04/10 13:10:09;;;;;;;4.35;2.47;;;9.20;81.90;;;;;;5098251;28;20086;-50
2022/04/10 13:13:05;;;;;;;6.20;2.58;;;9.50;79.30;;;;;;5116807;27;20168;-48
2022/04/10 13:15:49;;;;;;;3.15;2.00;;;9.60;76.90;;;;;;5113245;28;20168;-51
2022/04/10 13:18:34;;;;;;;4.90;2.50;;;9.40;78.30;;;;;;5103413;28;20470;-51
2022/04/10 13:21:18;;;;;;;4.93;2.10;;;9.80;77.80;;;;;;5112885;28;20541;-49
2022/04/10 13:24:03;;;;;;;4.35;2.42;;;9.80;77.80;;;;;;5112392;28;20085;-53
2022/04/10 13:26:47;;;;;;;4.90;2.17;;;9.60;77.60;;;;;;5112319;28;20062;-49
2022/04/10 13:29:32;;;;;;;7.93;2.70;;;9.50;79.60;;;;;;5121378;27;20077;-50
2022/04/10 13:32:17;;;;;;;9.48;2.80;;;9.20;79.50;;;;;;5132636;27;20100;-53
2022/04/10 13:35:03;;;;;;;6.22;2.80;;;9.20;83.00;;;;;;5132645;27;20370;-53
2022/04/10 13:37:48;;;;;;;3.53;2.63;;;8.80;86.10;;;;;;5121539;27;20676;-51
2022/04/10 13:40:32;;;;;;;4.97;2.30;;;8.70;86.90;;;;;;5093638;28;20035;-50
2022/04/10 13:43:16;;;;;;;5.43;2.50;;;8.70;86.90;;;;;;5115203;27;20430;-54
2022/04/10 13:46:00;;;;;;;4.45;2.53;;;8.70;87.80;;;;;;5113681;27;20077;-51
2022/04/10 13:48:45;;;;;;;4.32;2.45;;;8.50;88.60;;;;;;5110827;28;20066;-48
2022/04/10 13:51:29;;;;;;;5.97;2.38;;;8.60;87.90;;;;;;5109718;28;20038;-49
2022/04/10 13:54:13;;;;;;;4.50;2.65;;;8.70;87.50;;;;;;5108358;27;20035;-48
2022/04/10 13:56:58;;;;;;;5.90;2.50;;;8.70;86.70;;;;;;5127731;27;20031;-47
2022/04/10 13:59:42;;;;;;;5.05;2.33;;;8.80;84.90;;;;;;5132317;27;20091;-48
2022/04/10 14:02:26;;;;;;;5.35;2.28;;;8.70;83.70;;;;;;5132348;27;20045;-49
2022/04/10 14:05:10;;;;;;;3.63;2.33;;;8.50;82.90;;;;;;5132295;27;20490;-51
2022/04/10 14:07:54;;;;;;;4.97;2.40;;;8.40;84.10;;;;;;5132104;27;20087;-48
2022/04/10 14:10:40;;;;;;;3.42;2.28;;;8.60;83.80;;;;;;5121341;27;20395;-49
2022/04/10 14:13:24;;;;;;;5.38;2.45;;;8.60;83.90;;;;;;5095372;28;20111;-51
2022/04/10 14:16:09;;;;;;;6.22;2.67;;;8.70;84.50;;;;;;5091171;28;20057;-47
2022/04/10 14:18:52;;;;;;;7.03;2.80;;;8.90;84.10;;;;;;5091195;28;20258;-49
2022/04/10 14:21:37;;;;;;;4.30;2.85;;;9.00;84.40;;;;;;5092508;28;20070;-49
2022/04/10 14:24:21;;;;;;;6.13;3.28;;;9.40;84.60;;;;;;5091272;28;20059;-49
2022/04/10 14:27:06;;;;;;;4.80;2.70;;;9.70;83.30;;;;;;5097204;28;20034;-50
2022/04/10 14:29:50;;;;;;;7.47;2.70;;;10.60;82.10;;;;;;5108936;28;20576;-49
2022/04/10 14:32:36;;;;;;;5.83;2.90;;;10.50;81.40;;;;;;5111342;28;20168;-49
2022/04/10 14:35:20;;;;;;;4.78;2.75;;;10.80;79.70;;;;;;5103644;28;20089;-48
2022/04/10 14:38:04;;;;;;;4.10;2.20;;;10.10;80.90;;;;;;5090923;28;20046;-49
2022/04/10 14:40:49;;;;;;;5.57;2.45;;;9.60;81.90;;;;;;5093607;27;20097;-49